createdAt,value
2022-10-02T00:00:47.145Z,11.52
2022-10-02T00:10:54.591Z,11.52
2022-10-02T00:21:01.802Z,11.57
2022-10-02T00:31:26.502Z,11.66
2022-10-02T00:41:59.908Z,11.67
2022-10-02T00:52:15.018Z,11.64
2022-10-02T01:02:32.593Z,11.67
2022-10-02T01:12:38.100Z,11.71
2022-10-02T01:22:47.876Z,11.84
2022-10-02T01:32:56.161Z,11.90
2022-10-02T01:43:02.264Z,11.90
2022-10-02T01:53:13.179Z,11.93
2022-10-02T02:03:23.305Z,12.01
2022-10-02T02:13:34.670Z,12.06
2022-10-02T02:23:40.993Z,12.09
2022-10-02T02:33:49.075Z,12.27
2022-10-02T02:43:57.500Z,12.42
2022-10-02T02:54:08.577Z,12.25
2022-10-02T03:04:13.969Z,12.09
2022-10-02T03:14:47.058Z,11.83
2022-10-02T03:24:53.345Z,11.65
2022-10-02T03:34:58.283Z,11.66
2022-10-02T03:45:01.044Z,11.69
2022-10-02T03:55:22.323Z,11.85
2022-10-02T04:05:30.040Z,12.02
2022-10-02T04:15:52.667Z,11.91
2022-10-02T04:26:01.679Z,11.88
2022-10-02T04:36:18.381Z,11.91
2022-10-02T04:46:47.453Z,12.01
2022-10-02T04:57:06.654Z,12.13
2022-10-02T05:07:31.259Z,12.28
2022-10-02T05:17:50.763Z,12.47
2022-10-02T05:28:21.408Z,12.42
2022-10-02T05:38:44.695Z,12.36
2022-10-02T05:48:54.111Z,12.38
2022-10-02T05:59:05.654Z,12.46
2022-10-02T06:09:19.763Z,12.47
2022-10-02T06:19:28.567Z,12.53
2022-10-02T06:29:38.161Z,12.63
2022-10-02T06:40:06.918Z,12.71
2022-10-02T06:50:36.192Z,12.80
2022-10-02T07:00:48.928Z,12.86
2022-10-02T07:11:02.559Z,12.99
2022-10-02T07:21:16.607Z,13.09
2022-10-02T07:31:30.450Z,13.14
2022-10-02T07:41:53.312Z,13.28
2022-10-02T07:52:03.380Z,13.50
2022-10-02T08:02:15.071Z,13.67
2022-10-02T08:12:28.286Z,13.98
2022-10-02T08:22:38.936Z,14.21
2022-10-02T08:32:42.279Z,14.33
2022-10-02T08:43:25.964Z,14.44
2022-10-02T08:54:01.257Z,14.53
2022-10-02T09:04:38.240Z,14.80
2022-10-02T09:14:50.106Z,14.66
2022-10-02T09:25:22.208Z,15.05
2022-10-02T09:36:02.001Z,15.50
2022-10-02T09:46:47.432Z,15.54
2022-10-02T09:57:31.912Z,15.51
2022-10-02T10:07:51.597Z,15.63
2022-10-02T10:18:26.694Z,15.88
2022-10-02T10:29:21.305Z,15.94
2022-10-02T10:39:50.376Z,16.15
2022-10-02T10:50:29.790Z,16.01
2022-10-02T11:00:41.873Z,16.30
2022-10-02T11:11:00.798Z,16.49
2022-10-02T11:21:21.725Z,16.65
2022-10-02T11:31:37.265Z,17.02
2022-10-02T11:42:17.552Z,17.10
2022-10-02T11:52:47.992Z,17.02
2022-10-02T12:03:02.128Z,16.99
2022-10-02T12:13:27.733Z,16.78
2022-10-02T12:23:59.447Z,15.53
2022-10-02T12:34:26.983Z,15.21
2022-10-02T12:44:56.596Z,15.32
2022-10-02T12:55:47.786Z,16.04
2022-10-02T13:06:29.746Z,15.67
2022-10-02T13:16:54.752Z,15.02
2022-10-02T13:27:04.314Z,14.92
2022-10-02T13:37:19.377Z,15.02
2022-10-02T13:47:34.496Z,15.39
2022-10-02T13:57:56.782Z,15.76
2022-10-02T14:08:16.101Z,16.60
2022-10-02T14:18:35.861Z,17.12
2022-10-02T14:28:59.222Z,17.38
2022-10-02T14:39:19.156Z,17.50
2022-10-02T14:49:41.346Z,17.21
2022-10-02T15:00:03.365Z,17.20
2022-10-02T15:10:16.410Z,17.28
2022-10-02T15:20:31.132Z,16.95
2022-10-02T15:30:40.120Z,16.53
2022-10-02T15:40:56.453Z,16.19
2022-10-02T15:51:08.704Z,15.90
2022-10-02T16:01:27.896Z,15.51
2022-10-02T16:11:53.362Z,15.15
2022-10-02T16:22:18.040Z,14.84
2022-10-02T16:32:31.190Z,14.53
2022-10-02T16:42:49.358Z,14.23
2022-10-02T16:52:57.115Z,13.94
2022-10-02T17:03:09.560Z,13.68
2022-10-02T17:13:24.743Z,13.44
2022-10-02T17:23:38.338Z,13.13
2022-10-02T17:33:46.506Z,12.83
2022-10-02T17:44:03.143Z,12.51
2022-10-02T17:54:40.611Z,12.18
2022-10-02T18:05:02.256Z,11.89
2022-10-02T18:15:25.306Z,11.72
2022-10-02T18:25:53.876Z,11.55
2022-10-02T18:36:18.048Z,11.34
2022-10-02T18:46:37.373Z,11.10
2022-10-02T18:56:54.117Z,10.88
2022-10-02T19:07:07.503Z,10.72
2022-10-02T19:17:15.193Z,10.46
2022-10-02T19:27:26.617Z,10.14
2022-10-02T19:37:31.634Z,9.94
2022-10-02T19:47:44.575Z,9.76
2022-10-02T19:57:49.697Z,9.64
2022-10-02T20:07:56.753Z,9.47
2022-10-02T20:17:59.738Z,9.23
2022-10-02T20:28:11.505Z,9.14
2022-10-02T20:38:22.294Z,9.00
2022-10-02T20:49:09.087Z,8.81
2022-10-02T20:59:52.504Z,8.61
2022-10-02T21:10:39.425Z,8.53
2022-10-02T21:21:01.097Z,8.38
2022-10-02T21:31:18.072Z,8.23
2022-10-02T21:41:55.157Z,8.07
2022-10-02T21:52:25.919Z,7.91
2022-10-02T22:02:56.809Z,7.74
2022-10-02T22:13:18.231Z,7.62
2022-10-02T22:23:35.147Z,7.49
2022-10-02T22:33:57.134Z,7.38
2022-10-02T22:44:06.576Z,7.30
2022-10-02T22:54:21.469Z,7.26
2022-10-02T23:04:32.878Z,7.14
2022-10-02T23:14:43.247Z,7.04
2022-10-02T23:24:52.440Z,7.01
2022-10-02T23:35:04.548Z,6.94
2022-10-02T23:45:18.203Z,6.96
2022-10-02T23:55:39.594Z,6.95
